sensor_id;sensor_type;location;lat;lon;timestamp;temperature;humidity
21167;DHT22;10741;52.272;9.580;2024-01-30T00:01:24;6.10;99.90
21167;DHT22;10741;52.272;9.580;2024-01-30T00:03:49;6.20;99.90
21167;DHT22;10741;52.272;9.580;2024-01-30T00:06:18;6.20;99.90
21167;DHT22;10741;52.272;9.580;2024-01-30T00:08:44;6.20;99.90
21167;DHT22;10741;52.272;9.580;2024-01-30T00:11:12;6.20;99.90
21167;DHT22;10741;52.272;9.580;2024-01-30T00:13:37;6.20;99.90
21167;DHT22;10741;52.272;9.580;2024-01-30T00:16:03;6.10;99.90
21167;DHT22;10741;52.272;9.580;2024-01-30T00:18:29;6.10;99.90
21167;DHT22;10741;52.272;9.580;2024-01-30T00:20:54;6.00;99.90
21167;DHT22;10741;52.272;9.580;2024-01-30T00:23:20;5.90;99.90
21167;DHT22;10741;52.272;9.580;2024-01-30T00:25:46;5.80;99.90
21167;DHT22;10741;52.272;9.580;2024-01-30T00:28:11;5.80;99.90
21167;DHT22;10741;52.272;9.580;2024-01-30T00:30:37;5.80;99.90
21167;DHT22;10741;52.272;9.580;2024-01-30T00:33:02;5.70;99.90
21167;DHT22;10741;52.272;9.580;2024-01-30T00:35:28;5.70;99.90
21167;DHT22;10741;52.272;9.580;2024-01-30T00:37:54;5.60;99.90
21167;DHT22;10741;52.272;9.580;2024-01-30T00:40:20;5.70;99.90
21167;DHT22;10741;52.272;9.580;2024-01-30T00:42:45;5.70;99.90
21167;DHT22;10741;52.272;9.580;2024-01-30T00:45:15;5.80;99.90
21167;DHT22;10741;52.272;9.580;2024-01-30T00:47:41;5.90;99.90
21167;DHT22;10741;52.272;9.580;2024-01-30T00:50:07;5.80;99.90
21167;DHT22;10741;52.272;9.580;2024-01-30T00:52:32;5.90;99.90
21167;DHT22;10741;52.272;9.580;2024-01-30T00:54:59;5.80;99.90
21167;DHT22;10741;52.272;9.580;2024-01-30T00:57:24;6.00;99.90
21167;DHT22;10741;52.272;9.580;2024-01-30T00:59:50;6.00;99.90
21167;DHT22;10741;52.272;9.580;2024-01-30T01:02:16;6.00;99.90
21167;DHT22;10741;52.272;9.580;2024-01-30T01:04:43;6.00;99.90
21167;DHT22;10741;52.272;9.580;2024-01-30T01:07:08;6.00;99.90
21167;DHT22;10741;52.272;9.580;2024-01-30T01:09:34;5.90;99.90
21167;DHT22;10741;52.272;9.580;2024-01-30T01:11:59;5.80;99.90
21167;DHT22;10741;52.272;9.580;2024-01-30T01:14:25;5.80;99.90
21167;DHT22;10741;52.272;9.580;2024-01-30T01:16:51;5.80;99.90
21167;DHT22;10741;52.272;9.580;2024-01-30T01:19:16;6.00;99.90
21167;DHT22;10741;52.272;9.580;2024-01-30T01:21:42;6.00;99.90
21167;DHT22;10741;52.272;9.580;2024-01-30T01:24:07;5.90;99.90
21167;DHT22;10741;52.272;9.580;2024-01-30T01:26:33;5.90;99.90
21167;DHT22;10741;52.272;9.580;2024-01-30T01:28:59;6.00;99.90
21167;DHT22;10741;52.272;9.580;2024-01-30T01:31:24;6.00;99.90
21167;DHT22;10741;52.272;9.580;2024-01-30T01:33:50;6.30;99.90
21167;DHT22;10741;52.272;9.580;2024-01-30T01:36:16;6.50;99.90
21167;DHT22;10741;52.272;9.580;2024-01-30T01:38:41;6.50;99.90
21167;DHT22;10741;52.272;9.580;2024-01-30T01:41:07;6.50;99.90
21167;DHT22;10741;52.272;9.580;2024-01-30T01:43:32;6.60;99.90
21167;DHT22;10741;52.272;9.580;2024-01-30T01:45:58;6.60;99.90
21167;DHT22;10741;52.272;9.580;2024-01-30T01:48:24;6.70;99.90
21167;DHT22;10741;52.272;9.580;2024-01-30T01:50:50;6.80;99.90
21167;DHT22;10741;52.272;9.580;2024-01-30T01:53:16;6.70;99.90
21167;DHT22;10741;52.272;9.580;2024-01-30T01:55:42;6.80;99.90
21167;DHT22;10741;52.272;9.580;2024-01-30T01:58:09;6.80;99.90
21167;DHT22;10741;52.272;9.580;2024-01-30T02:00:36;6.90;99.90
21167;DHT22;10741;52.272;9.580;2024-01-30T02:03:05;7.00;99.90
21167;DHT22;10741;52.272;9.580;2024-01-30T02:05:32;7.20;99.90
21167;DHT22;10741;52.272;9.580;2024-01-30T02:07:57;7.20;99.90
21167;DHT22;10741;52.272;9.580;2024-01-30T02:10:23;7.20;99.90
21167;DHT22;10741;52.272;9.580;2024-01-30T02:12:49;7.30;99.90
21167;DHT22;10741;52.272;9.580;2024-01-30T02:15:15;7.20;99.90
21167;DHT22;10741;52.272;9.580;2024-01-30T02:17:48;7.10;99.90
21167;DHT22;10741;52.272;9.580;2024-01-30T02:20:14;7.10;99.90
21167;DHT22;10741;52.272;9.580;2024-01-30T02:22:40;7.10;99.90
21167;DHT22;10741;52.272;9.580;2024-01-30T02:25:06;7.00;99.90
21167;DHT22;10741;52.272;9.580;2024-01-30T02:27:32;7.00;99.90
21167;DHT22;10741;52.272;9.580;2024-01-30T02:29:58;7.10;99.90
21167;DHT22;10741;52.272;9.580;2024-01-30T02:32:24;7.10;99.90
21167;DHT22;10741;52.272;9.580;2024-01-30T02:34:50;7.20;99.90
21167;DHT22;10741;52.272;9.580;2024-01-30T02:37:16;7.20;99.90
21167;DHT22;10741;52.272;9.580;2024-01-30T02:39:42;7.40;99.90
21167;DHT22;10741;52.272;9.580;2024-01-30T02:42:07;7.50;99.90
21167;DHT22;10741;52.272;9.580;2024-01-30T02:44:33;7.50;99.90
21167;DHT22;10741;52.272;9.580;2024-01-30T02:46:59;7.50;99.90
21167;DHT22;10741;52.272;9.580;2024-01-30T02:49:24;7.60;99.90
21167;DHT22;10741;52.272;9.580;2024-01-30T02:51:51;7.60;99.90
21167;DHT22;10741;52.272;9.580;2024-01-30T02:54:17;7.60;99.90
21167;DHT22;10741;52.272;9.580;2024-01-30T02:56:42;7.60;99.90
21167;DHT22;10741;52.272;9.580;2024-01-30T02:59:08;7.50;99.90
21167;DHT22;10741;52.272;9.580;2024-01-30T03:01:33;7.50;99.90
21167;DHT22;10741;52.272;9.580;2024-01-30T03:04:07;7.40;99.90
21167;DHT22;10741;52.272;9.580;2024-01-30T03:06:32;7.30;99.90
21167;DHT22;10741;52.272;9.580;2024-01-30T03:08:58;7.20;99.90
21167;DHT22;10741;52.272;9.580;2024-01-30T03:11:23;7.10;99.90
21167;DHT22;10741;52.272;9.580;2024-01-30T03:13:49;7.10;99.90
21167;DHT22;10741;52.272;9.580;2024-01-30T03:16:15;7.10;99.90
21167;DHT22;10741;52.272;9.580;2024-01-30T03:18:40;7.20;99.90
21167;DHT22;10741;52.272;9.580;2024-01-30T03:21:06;7.20;99.90
21167;DHT22;10741;52.272;9.580;2024-01-30T03:23:31;7.20;99.90
21167;DHT22;10741;52.272;9.580;2024-01-30T03:25:57;7.20;99.90
21167;DHT22;10741;52.272;9.580;2024-01-30T03:28:23;7.20;99.90
21167;DHT22;10741;52.272;9.580;2024-01-30T03:30:49;7.10;99.90
21167;DHT22;10741;52.272;9.580;2024-01-30T03:33:14;7.00;99.90
21167;DHT22;10741;52.272;9.580;2024-01-30T03:35:40;7.00;99.90
21167;DHT22;10741;52.272;9.580;2024-01-30T03:38:05;6.90;99.90
21167;DHT22;10741;52.272;9.580;2024-01-30T03:40:31;6.70;99.90
21167;DHT22;10741;52.272;9.580;2024-01-30T03:42:56;6.60;99.90
21167;DHT22;10741;52.272;9.580;2024-01-30T03:45:22;6.50;99.90
21167;DHT22;10741;52.272;9.580;2024-01-30T03:47:47;6.40;99.90
21167;DHT22;10741;52.272;9.580;2024-01-30T03:50:13;6.20;99.90
21167;DHT22;10741;52.272;9.580;2024-01-30T03:52:38;6.00;99.90
21167;DHT22;10741;52.272;9.580;2024-01-30T03:55:04;5.90;99.90
21167;DHT22;10741;52.272;9.580;2024-01-30T03:57:30;5.80;99.90
21167;DHT22;10741;52.272;9.580;2024-01-30T03:59:56;5.60;99.90
21167;DHT22;10741;52.272;9.580;2024-01-30T04:02:21;5.40;99.90
21167;DHT22;10741;52.272;9.580;2024-01-30T04:04:47;5.30;99.90
21167;DHT22;10741;52.272;9.580;2024-01-30T04:07:12;5.20;99.90
21167;DHT22;10741;52.272;9.580;2024-01-30T04:09:38;5.30;99.90
21167;DHT22;10741;52.272;9.580;2024-01-30T04:12:04;5.60;99.90
21167;DHT22;10741;52.272;9.580;2024-01-30T04:14:29;5.90;99.90
21167;DHT22;10741;52.272;9.580;2024-01-30T04:16:55;6.00;99.90
21167;DHT22;10741;52.272;9.580;2024-01-30T04:19:21;6.10;99.90
21167;DHT22;10741;52.272;9.580;2024-01-30T04:21:46;6.10;99.90
21167;DHT22;10741;52.272;9.580;2024-01-30T04:24:12;6.10;99.90
21167;DHT22;10741;52.272;9.580;2024-01-30T04:26:37;6.00;99.90
21167;DHT22;10741;52.272;9.580;2024-01-30T04:29:03;5.80;99.90
21167;DHT22;10741;52.272;9.580;2024-01-30T04:31:28;5.70;99.90
21167;DHT22;10741;52.272;9.580;2024-01-30T04:33:54;5.40;99.90
21167;DHT22;10741;52.272;9.580;2024-01-30T04:36:19;5.30;99.90
21167;DHT22;10741;52.272;9.580;2024-01-30T04:38:45;5.10;99.90
21167;DHT22;10741;52.272;9.580;2024-01-30T04:41:10;5.00;99.90
21167;DHT22;10741;52.272;9.580;2024-01-30T04:43:36;4.80;99.90
21167;DHT22;10741;52.272;9.580;2024-01-30T04:46:02;4.70;99.90
21167;DHT22;10741;52.272;9.580;2024-01-30T04:48:27;4.60;99.90
21167;DHT22;10741;52.272;9.580;2024-01-30T04:50:53;4.50;99.90
21167;DHT22;10741;52.272;9.580;2024-01-30T04:53:18;4.50;99.90
21167;DHT22;10741;52.272;9.580;2024-01-30T04:55:44;4.50;99.90
21167;DHT22;10741;52.272;9.580;2024-01-30T04:58:10;4.50;99.90
21167;DHT22;10741;52.272;9.580;2024-01-30T05:00:35;4.50;99.90
21167;DHT22;10741;52.272;9.580;2024-01-30T05:03:01;4.40;99.90
21167;DHT22;10741;52.272;9.580;2024-01-30T05:05:26;4.40;99.90
21167;DHT22;10741;52.272;9.580;2024-01-30T05:07:52;4.50;99.90
21167;DHT22;10741;52.272;9.580;2024-01-30T05:10:17;4.50;99.90
21167;DHT22;10741;52.272;9.580;2024-01-30T05:12:44;4.60;99.90
21167;DHT22;10741;52.272;9.580;2024-01-30T05:15:09;4.70;99.90
21167;DHT22;10741;52.272;9.580;2024-01-30T05:17:35;4.60;99.90
21167;DHT22;10741;52.272;9.580;2024-01-30T05:20:00;4.60;99.90
21167;DHT22;10741;52.272;9.580;2024-01-30T05:22:26;4.60;99.90
21167;DHT22;10741;52.272;9.580;2024-01-30T05:24:52;4.60;99.90
21167;DHT22;10741;52.272;9.580;2024-01-30T05:27:17;4.60;99.90
21167;DHT22;10741;52.272;9.580;2024-01-30T05:29:43;4.70;99.90
21167;DHT22;10741;52.272;9.580;2024-01-30T05:32:08;4.70;99.90
21167;DHT22;10741;52.272;9.580;2024-01-30T05:34:35;4.60;99.90
21167;DHT22;10741;52.272;9.580;2024-01-30T05:37:01;4.60;99.90
21167;DHT22;10741;52.272;9.580;2024-01-30T05:39:27;4.50;99.90
21167;DHT22;10741;52.272;9.580;2024-01-30T05:41:52;4.50;99.90
21167;DHT22;10741;52.272;9.580;2024-01-30T05:44:18;4.60;99.90
21167;DHT22;10741;52.272;9.580;2024-01-30T05:46:44;4.60;99.90
21167;DHT22;10741;52.272;9.580;2024-01-30T05:49:09;4.70;99.90
21167;DHT22;10741;52.272;9.580;2024-01-30T05:51:35;4.70;99.90
21167;DHT22;10741;52.272;9.580;2024-01-30T05:54:00;4.60;99.90
21167;DHT22;10741;52.272;9.580;2024-01-30T05:56:28;4.60;99.90
21167;DHT22;10741;52.272;9.580;2024-01-30T05:58:55;4.50;99.90
21167;DHT22;10741;52.272;9.580;2024-01-30T06:01:20;4.40;99.90
21167;DHT22;10741;52.272;9.580;2024-01-30T06:03:46;4.50;99.90
21167;DHT22;10741;52.272;9.580;2024-01-30T06:06:11;4.60;99.90
21167;DHT22;10741;52.272;9.580;2024-01-30T06:08:37;4.60;99.90
21167;DHT22;10741;52.272;9.580;2024-01-30T06:11:02;4.60;99.90
21167;DHT22;10741;52.272;9.580;2024-01-30T06:13:28;4.60;99.90
21167;DHT22;10741;52.272;9.580;2024-01-30T06:15:57;4.50;99.90
21167;DHT22;10741;52.272;9.580;2024-01-30T06:18:22;4.40;99.90
21167;DHT22;10741;52.272;9.580;2024-01-30T06:20:48;4.40;99.90
21167;DHT22;10741;52.272;9.580;2024-01-30T06:23:13;4.30;99.90
21167;DHT22;10741;52.272;9.580;2024-01-30T06:25:40;4.30;99.90
21167;DHT22;10741;52.272;9.580;2024-01-30T06:28:05;4.30;99.90
21167;DHT22;10741;52.272;9.580;2024-01-30T06:30:31;4.30;99.90
21167;DHT22;10741;52.272;9.580;2024-01-30T06:32:57;4.30;99.90
21167;DHT22;10741;52.272;9.580;2024-01-30T06:35:22;4.20;99.90
21167;DHT22;10741;52.272;9.580;2024-01-30T06:37:48;4.20;99.90
21167;DHT22;10741;52.272;9.580;2024-01-30T06:40:13;4.20;99.90
21167;DHT22;10741;52.272;9.580;2024-01-30T06:42:39;4.20;99.90
21167;DHT22;10741;52.272;9.580;2024-01-30T06:45:05;4.20;99.90
21167;DHT22;10741;52.272;9.580;2024-01-30T06:47:31;4.10;99.90
21167;DHT22;10741;52.272;9.580;2024-01-30T06:49:57;4.10;99.90
21167;DHT22;10741;52.272;9.580;2024-01-30T06:52:23;4.10;99.90
21167;DHT22;10741;52.272;9.580;2024-01-30T06:54:48;4.10;99.90
21167;DHT22;10741;52.272;9.580;2024-01-30T06:57:14;4.00;99.90
21167;DHT22;10741;52.272;9.580;2024-01-30T06:59:40;4.00;99.90
21167;DHT22;10741;52.272;9.580;2024-01-30T07:02:09;4.00;99.90
21167;DHT22;10741;52.272;9.580;2024-01-30T07:04:35;4.00;99.90
21167;DHT22;10741;52.272;9.580;2024-01-30T07:07:03;4.10;99.90
21167;DHT22;10741;52.272;9.580;2024-01-30T07:09:30;4.20;99.90
21167;DHT22;10741;52.272;9.580;2024-01-30T07:11:56;4.20;99.90
21167;DHT22;10741;52.272;9.580;2024-01-30T07:14:24;4.10;99.90
21167;DHT22;10741;52.272;9.580;2024-01-30T07:16:49;4.20;99.90
21167;DHT22;10741;52.272;9.580;2024-01-30T07:19:15;4.20;99.90
21167;DHT22;10741;52.272;9.580;2024-01-30T07:21:41;4.20;99.90
21167;DHT22;10741;52.272;9.580;2024-01-30T07:24:07;4.20;99.90
21167;DHT22;10741;52.272;9.580;2024-01-30T07:26:32;4.20;99.90
21167;DHT22;10741;52.272;9.580;2024-01-30T07:28:58;4.20;99.90
21167;DHT22;10741;52.272;9.580;2024-01-30T07:31:23;4.30;99.90
21167;DHT22;10741;52.272;9.580;2024-01-30T07:33:49;4.30;99.90
21167;DHT22;10741;52.272;9.580;2024-01-30T07:36:14;4.30;99.90
21167;DHT22;10741;52.272;9.580;2024-01-30T07:38:40;4.30;99.90
21167;DHT22;10741;52.272;9.580;2024-01-30T07:41:06;4.30;99.90
21167;DHT22;10741;52.272;9.580;2024-01-30T07:43:31;4.40;99.90
21167;DHT22;10741;52.272;9.580;2024-01-30T07:45:58;4.40;99.90
21167;DHT22;10741;52.272;9.580;2024-01-30T07:48:23;4.50;99.90
21167;DHT22;10741;52.272;9.580;2024-01-30T07:50:49;4.50;99.90
21167;DHT22;10741;52.272;9.580;2024-01-30T07:53:14;4.60;99.90
21167;DHT22;10741;52.272;9.580;2024-01-30T07:55:40;4.60;99.90
21167;DHT22;10741;52.272;9.580;2024-01-30T07:58:06;4.70;99.90
21167;DHT22;10741;52.272;9.580;2024-01-30T08:00:32;4.80;99.90
21167;DHT22;10741;52.272;9.580;2024-01-30T08:02:57;4.90;99.90
21167;DHT22;10741;52.272;9.580;2024-01-30T08:05:24;5.00;99.90
21167;DHT22;10741;52.272;9.580;2024-01-30T08:07:49;5.10;99.90
21167;DHT22;10741;52.272;9.580;2024-01-30T08:10:15;5.30;99.90
21167;DHT22;10741;52.272;9.580;2024-01-30T08:12:43;5.40;99.90
21167;DHT22;10741;52.272;9.580;2024-01-30T08:15:09;5.50;99.90
21167;DHT22;10741;52.272;9.580;2024-01-30T08:17:35;5.50;99.90
21167;DHT22;10741;52.272;9.580;2024-01-30T08:20:00;5.60;99.90
21167;DHT22;10741;52.272;9.580;2024-01-30T08:22:26;5.70;99.90
21167;DHT22;10741;52.272;9.580;2024-01-30T08:24:52;5.70;99.90
21167;DHT22;10741;52.272;9.580;2024-01-30T08:27:17;5.80;99.90
21167;DHT22;10741;52.272;9.580;2024-01-30T08:29:43;5.80;99.90
21167;DHT22;10741;52.272;9.580;2024-01-30T08:32:08;6.00;99.90
21167;DHT22;10741;52.272;9.580;2024-01-30T08:34:34;6.10;99.90
21167;DHT22;10741;52.272;9.580;2024-01-30T08:37:00;6.20;99.90
21167;DHT22;10741;52.272;9.580;2024-01-30T08:39:25;6.30;99.90
21167;DHT22;10741;52.272;9.580;2024-01-30T08:41:51;6.40;99.90
21167;DHT22;10741;52.272;9.580;2024-01-30T08:44:17;6.60;99.90
21167;DHT22;10741;52.272;9.580;2024-01-30T08:46:43;6.90;99.90
21167;DHT22;10741;52.272;9.580;2024-01-30T08:49:10;7.20;99.90
21167;DHT22;10741;52.272;9.580;2024-01-30T08:51:36;7.60;99.90
21167;DHT22;10741;52.272;9.580;2024-01-30T08:54:02;7.80;99.90
21167;DHT22;10741;52.272;9.580;2024-01-30T08:56:28;8.00;99.90
21167;DHT22;10741;52.272;9.580;2024-01-30T08:58:53;8.00;99.90
21167;DHT22;10741;52.272;9.580;2024-01-30T09:01:19;8.00;99.90
21167;DHT22;10741;52.272;9.580;2024-01-30T09:03:45;8.10;99.90
21167;DHT22;10741;52.272;9.580;2024-01-30T09:06:12;8.00;99.90
21167;DHT22;10741;52.272;9.580;2024-01-30T09:08:38;8.10;99.90
21167;DHT22;10741;52.272;9.580;2024-01-30T09:11:12;8.10;99.90
21167;DHT22;10741;52.272;9.580;2024-01-30T09:13:38;8.10;99.90
21167;DHT22;10741;52.272;9.580;2024-01-30T09:16:04;8.20;99.90
21167;DHT22;10741;52.272;9.580;2024-01-30T09:18:30;8.30;99.90
21167;DHT22;10741;52.272;9.580;2024-01-30T09:20:55;8.40;99.90
21167;DHT22;10741;52.272;9.580;2024-01-30T09:23:21;8.50;99.90
21167;DHT22;10741;52.272;9.580;2024-01-30T09:25:47;8.60;99.90
21167;DHT22;10741;52.272;9.580;2024-01-30T09:28:13;8.70;99.90
21167;DHT22;10741;52.272;9.580;2024-01-30T09:30:38;8.80;99.90
21167;DHT22;10741;52.272;9.580;2024-01-30T09:33:04;8.80;99.90
21167;DHT22;10741;52.272;9.580;2024-01-30T09:35:30;8.90;99.90
21167;DHT22;10741;52.272;9.580;2024-01-30T09:37:56;8.90;99.90
21167;DHT22;10741;52.272;9.580;2024-01-30T09:40:23;9.00;99.90
21167;DHT22;10741;52.272;9.580;2024-01-30T09:42:50;9.10;99.90
21167;DHT22;10741;52.272;9.580;2024-01-30T09:45:18;9.10;99.90
21167;DHT22;10741;52.272;9.580;2024-01-30T09:47:45;9.20;99.90
21167;DHT22;10741;52.272;9.580;2024-01-30T09:50:12;9.20;99.90
21167;DHT22;10741;52.272;9.580;2024-01-30T09:52:39;9.30;99.90
21167;DHT22;10741;52.272;9.580;2024-01-30T09:55:06;9.40;99.90
21167;DHT22;10741;52.272;9.580;2024-01-30T09:57:32;9.50;99.90
21167;DHT22;10741;52.272;9.580;2024-01-30T09:59:58;9.60;99.90
21167;DHT22;10741;52.272;9.580;2024-01-30T10:02:23;9.70;99.90
21167;DHT22;10741;52.272;9.580;2024-01-30T10:04:50;9.80;99.90
21167;DHT22;10741;52.272;9.580;2024-01-30T10:07:17;9.80;99.90
21167;DHT22;10741;52.272;9.580;2024-01-30T10:09:42;9.90;99.90
21167;DHT22;10741;52.272;9.580;2024-01-30T10:12:11;9.90;99.90
21167;DHT22;10741;52.272;9.580;2024-01-30T10:14:40;9.90;99.90
21167;DHT22;10741;52.272;9.580;2024-01-30T10:17:10;9.90;99.90
21167;DHT22;10741;52.272;9.580;2024-01-30T10:19:40;9.90;99.90
21167;DHT22;10741;52.272;9.580;2024-01-30T10:22:06;9.90;99.90
21167;DHT22;10741;52.272;9.580;2024-01-30T10:24:33;9.80;99.90
21167;DHT22;10741;52.272;9.580;2024-01-30T10:26:59;9.80;99.90
21167;DHT22;10741;52.272;9.580;2024-01-30T10:29:24;9.80;99.90
21167;DHT22;10741;52.272;9.580;2024-01-30T10:32:03;9.70;99.90
21167;DHT22;10741;52.272;9.580;2024-01-30T10:34:29;9.70;99.90
21167;DHT22;10741;52.272;9.580;2024-01-30T10:37:11;9.80;99.90
21167;DHT22;10741;52.272;9.580;2024-01-30T10:39:40;9.80;99.90
21167;DHT22;10741;52.272;9.580;2024-01-30T10:42:07;9.80;99.90
21167;DHT22;10741;52.272;9.580;2024-01-30T10:45:00;9.80;99.90
21167;DHT22;10741;52.272;9.580;2024-01-30T10:47:29;9.70;99.90
21167;DHT22;10741;52.272;9.580;2024-01-30T10:49:55;9.70;99.90
21167;DHT22;10741;52.272;9.580;2024-01-30T10:52:23;9.70;99.90
21167;DHT22;10741;52.272;9.580;2024-01-30T10:54:51;9.60;99.90
21167;DHT22;10741;52.272;9.580;2024-01-30T10:57:17;9.60;99.90
21167;DHT22;10741;52.272;9.580;2024-01-30T10:59:44;9.60;99.90
21167;DHT22;10741;52.272;9.580;2024-01-30T11:02:11;9.70;99.90
21167;DHT22;10741;52.272;9.580;2024-01-30T11:04:37;9.80;99.90
21167;DHT22;10741;52.272;9.580;2024-01-30T11:07:17;9.70;99.90
21167;DHT22;10741;52.272;9.580;2024-01-30T11:10:12;9.70;99.90
21167;DHT22;10741;52.272;9.580;2024-01-30T11:12:40;9.70;99.90
21167;DHT22;10741;52.272;9.580;2024-01-30T11:15:10;9.70;99.90
21167;DHT22;10741;52.272;9.580;2024-01-30T11:17:43;9.70;99.90
21167;DHT22;10741;52.272;9.580;2024-01-30T11:20:15;9.80;99.90
21167;DHT22;10741;52.272;9.580;2024-01-30T11:22:42;9.80;99.90
21167;DHT22;10741;52.272;9.580;2024-01-30T11:25:12;9.80;99.90
21167;DHT22;10741;52.272;9.580;2024-01-30T11:27:38;9.80;99.90
21167;DHT22;10741;52.272;9.580;2024-01-30T11:30:04;9.80;99.90
21167;DHT22;10741;52.272;9.580;2024-01-30T11:32:30;9.70;99.90
21167;DHT22;10741;52.272;9.580;2024-01-30T11:34:56;9.70;99.90
21167;DHT22;10741;52.272;9.580;2024-01-30T11:37:25;9.70;99.90
21167;DHT22;10741;52.272;9.580;2024-01-30T11:39:52;9.80;99.90
21167;DHT22;10741;52.272;9.580;2024-01-30T11:42:19;9.90;99.90
21167;DHT22;10741;52.272;9.580;2024-01-30T11:44:48;10.00;99.90
21167;DHT22;10741;52.272;9.580;2024-01-30T11:47:14;10.10;99.90
21167;DHT22;10741;52.272;9.580;2024-01-30T11:49:41;10.40;99.90
21167;DHT22;10741;52.272;9.580;2024-01-30T11:52:07;10.70;99.90
21167;DHT22;10741;52.272;9.580;2024-01-30T11:54:32;10.70;99.90
21167;DHT22;10741;52.272;9.580;2024-01-30T11:56:58;10.80;99.90
21167;DHT22;10741;52.272;9.580;2024-01-30T11:59:24;11.00;99.90
21167;DHT22;10741;52.272;9.580;2024-01-30T12:01:51;11.10;99.90
21167;DHT22;10741;52.272;9.580;2024-01-30T12:04:17;11.10;99.90
21167;DHT22;10741;52.272;9.580;2024-01-30T12:06:43;11.20;99.90
21167;DHT22;10741;52.272;9.580;2024-01-30T12:09:09;11.40;99.90
21167;DHT22;10741;52.272;9.580;2024-01-30T12:11:47;11.60;99.90
21167;DHT22;10741;52.272;9.580;2024-01-30T12:14:13;11.70;99.90
21167;DHT22;10741;52.272;9.580;2024-01-30T12:16:39;11.60;99.90
21167;DHT22;10741;52.272;9.580;2024-01-30T12:19:05;11.50;99.90
21167;DHT22;10741;52.272;9.580;2024-01-30T12:21:30;11.50;99.90
21167;DHT22;10741;52.272;9.580;2024-01-30T12:23:57;11.80;99.90
21167;DHT22;10741;52.272;9.580;2024-01-30T12:26:24;11.90;99.90
21167;DHT22;10741;52.272;9.580;2024-01-30T12:28:53;12.00;99.90
21167;DHT22;10741;52.272;9.580;2024-01-30T12:31:25;11.90;99.90
21167;DHT22;10741;52.272;9.580;2024-01-30T12:33:52;11.80;99.90
21167;DHT22;10741;52.272;9.580;2024-01-30T12:36:18;11.60;99.90
21167;DHT22;10741;52.272;9.580;2024-01-30T12:38:43;11.70;99.90
21167;DHT22;10741;52.272;9.580;2024-01-30T12:41:09;11.90;99.90
21167;DHT22;10741;52.272;9.580;2024-01-30T12:43:36;11.90;99.90
21167;DHT22;10741;52.272;9.580;2024-01-30T12:46:02;11.90;99.90
21167;DHT22;10741;52.272;9.580;2024-01-30T12:48:28;12.10;99.90
21167;DHT22;10741;52.272;9.580;2024-01-30T12:50:56;12.20;99.90
21167;DHT22;10741;52.272;9.580;2024-01-30T12:53:21;12.20;99.90
21167;DHT22;10741;52.272;9.580;2024-01-30T12:55:47;12.10;99.90
21167;DHT22;10741;52.272;9.580;2024-01-30T12:58:12;11.90;99.90
21167;DHT22;10741;52.272;9.580;2024-01-30T13:00:38;11.90;99.90
21167;DHT22;10741;52.272;9.580;2024-01-30T13:03:04;11.80;99.90
21167;DHT22;10741;52.272;9.580;2024-01-30T13:05:29;11.50;99.90
21167;DHT22;10741;52.272;9.580;2024-01-30T13:07:55;11.50;99.90
21167;DHT22;10741;52.272;9.580;2024-01-30T13:10:22;11.40;99.90
21167;DHT22;10741;52.272;9.580;2024-01-30T13:12:48;11.50;99.90
21167;DHT22;10741;52.272;9.580;2024-01-30T13:15:14;11.50;99.90
21167;DHT22;10741;52.272;9.580;2024-01-30T13:17:40;11.50;99.90
21167;DHT22;10741;52.272;9.580;2024-01-30T13:20:08;11.40;99.90
21167;DHT22;10741;52.272;9.580;2024-01-30T13:22:34;11.30;99.90
21167;DHT22;10741;52.272;9.580;2024-01-30T13:24:59;11.10;99.90
21167;DHT22;10741;52.272;9.580;2024-01-30T13:27:25;11.00;99.90
21167;DHT22;10741;52.272;9.580;2024-01-30T13:29:50;10.90;99.90
21167;DHT22;10741;52.272;9.580;2024-01-30T13:32:16;10.80;99.90
21167;DHT22;10741;52.272;9.580;2024-01-30T13:34:42;10.70;99.90
21167;DHT22;10741;52.272;9.580;2024-01-30T13:37:08;10.60;99.90
21167;DHT22;10741;52.272;9.580;2024-01-30T13:39:34;10.50;99.90
21167;DHT22;10741;52.272;9.580;2024-01-30T13:41:59;10.50;99.90
21167;DHT22;10741;52.272;9.580;2024-01-30T13:44:25;10.50;99.90
21167;DHT22;10741;52.272;9.580;2024-01-30T13:46:51;10.40;99.90
21167;DHT22;10741;52.272;9.580;2024-01-30T13:49:16;10.40;99.90
21167;DHT22;10741;52.272;9.580;2024-01-30T13:51:42;10.40;99.90
21167;DHT22;10741;52.272;9.580;2024-01-30T13:54:08;10.30;99.90
21167;DHT22;10741;52.272;9.580;2024-01-30T13:56:34;10.30;99.90
21167;DHT22;10741;52.272;9.580;2024-01-30T13:58:59;10.30;99.90
21167;DHT22;10741;52.272;9.580;2024-01-30T14:01:26;10.20;99.90
21167;DHT22;10741;52.272;9.580;2024-01-30T14:03:52;10.20;99.90
21167;DHT22;10741;52.272;9.580;2024-01-30T14:06:18;10.20;99.90
21167;DHT22;10741;52.272;9.580;2024-01-30T14:08:44;10.10;99.90
21167;DHT22;10741;52.272;9.580;2024-01-30T14:11:09;10.10;99.90
21167;DHT22;10741;52.272;9.580;2024-01-30T14:13:35;10.10;99.90
21167;DHT22;10741;52.272;9.580;2024-01-30T14:16:00;10.00;99.90
21167;DHT22;10741;52.272;9.580;2024-01-30T14:18:26;10.00;99.90
21167;DHT22;10741;52.272;9.580;2024-01-30T14:20:52;10.00;99.90
21167;DHT22;10741;52.272;9.580;2024-01-30T14:23:18;10.00;99.90
21167;DHT22;10741;52.272;9.580;2024-01-30T14:25:44;9.90;99.90
21167;DHT22;10741;52.272;9.580;2024-01-30T14:28:10;9.90;99.90
21167;DHT22;10741;52.272;9.580;2024-01-30T14:30:35;9.90;99.90
21167;DHT22;10741;52.272;9.580;2024-01-30T14:33:01;9.90;99.90
21167;DHT22;10741;52.272;9.580;2024-01-30T14:35:27;9.90;99.90
21167;DHT22;10741;52.272;9.580;2024-01-30T14:37:53;9.90;99.90
21167;DHT22;10741;52.272;9.580;2024-01-30T14:40:19;9.90;99.90
21167;DHT22;10741;52.272;9.580;2024-01-30T14:42:45;9.90;99.90
21167;DHT22;10741;52.272;9.580;2024-01-30T14:45:11;9.90;99.90
21167;DHT22;10741;52.272;9.580;2024-01-30T14:47:37;9.90;99.90
21167;DHT22;10741;52.272;9.580;2024-01-30T14:50:03;9.90;99.90
21167;DHT22;10741;52.272;9.580;2024-01-30T14:52:30;9.90;99.90
21167;DHT22;10741;52.272;9.580;2024-01-30T14:54:57;9.90;99.90
21167;DHT22;10741;52.272;9.580;2024-01-30T14:57:24;9.90;99.90
21167;DHT22;10741;52.272;9.580;2024-01-30T14:59:49;9.90;99.90
21167;DHT22;10741;52.272;9.580;2024-01-30T15:02:15;9.80;99.90
21167;DHT22;10741;52.272;9.580;2024-01-30T15:04:40;9.80;99.90
21167;DHT22;10741;52.272;9.580;2024-01-30T15:07:06;9.80;99.90
21167;DHT22;10741;52.272;9.580;2024-01-30T15:09:32;9.80;99.90
21167;DHT22;10741;52.272;9.580;2024-01-30T15:11:57;9.80;99.90
21167;DHT22;10741;52.272;9.580;2024-01-30T15:14:23;9.80;99.90
21167;DHT22;10741;52.272;9.580;2024-01-30T15:16:49;9.70;99.90
21167;DHT22;10741;52.272;9.580;2024-01-30T15:19:15;9.90;99.90
21167;DHT22;10741;52.272;9.580;2024-01-30T15:21:41;9.90;99.90
21167;DHT22;10741;52.272;9.580;2024-01-30T15:24:07;9.90;99.90
21167;DHT22;10741;52.272;9.580;2024-01-30T15:26:32;9.80;99.90
21167;DHT22;10741;52.272;9.580;2024-01-30T15:28:58;9.90;99.90
21167;DHT22;10741;52.272;9.580;2024-01-30T15:31:23;9.90;99.90
21167;DHT22;10741;52.272;9.580;2024-01-30T15:33:49;9.90;99.90
21167;DHT22;10741;52.272;9.580;2024-01-30T15:36:15;9.90;99.90